Time;durP1;ratioP1;P1;durP2;ratioP2;P2;SDS_P1;SDS_P2;PMS_P1;PMS_P2;Temp;Humidity;BMP_temperature;BMP_pressure;BME280_temperature;BME280_humidity;BME280_pressure;Samples;Min_cycle;Max_cycle;Signal;HPM_P1;HPM_P2
2023/12/14 00:01:10;;;;;;;22.23;11.50;;;7.10;91.80;;;;;;9183419;19;20018;-73
2023/12/14 00:04:18;;;;;;;19.67;11.70;;;7.10;91.60;;;;;;9183613;19;20472;-76
2023/12/14 00:07:26;;;;;;;20.73;12.27;;;7.00;91.80;;;;;;9181199;19;20015;-75
2023/12/14 00:10:34;;;;;;;18.42;11.38;;;7.10;91.80;;;;;;9183409;19;20023;-74
2023/12/14 00:13:40;;;;;;;20.00;10.38;;;7.10;92.10;;;;;;9183661;19;20939;-75
2023/12/14 00:16:49;;;;;;;22.10;10.93;;;7.10;92.00;;;;;;9182147;19;20014;-74
2023/12/14 00:19:54;;;;;;;19.10;10.57;;;7.10;92.30;;;;;;9182741;19;20021;-74
2023/12/14 00:23:04;;;;;;;14.15;10.10;;;7.10;93.00;;;;;;9182205;19;20017;-75
2023/12/14 00:26:10;;;;;;;16.27;9.25;;;6.90;91.40;;;;;;9180391;19;20098;-73
2023/12/14 00:29:18;;;;;;;17.08;10.70;;;6.90;91.10;;;;;;9174831;19;20022;-73
2023/12/14 00:32:23;;;;;;;18.40;10.80;;;6.90;91.20;;;;;;9179186;19;20022;-73
2023/12/14 00:35:31;;;;;;;17.08;10.60;;;6.90;91.30;;;;;;9182203;19;20018;-73
2023/12/14 00:38:39;;;;;;;15.77;10.27;;;6.90;92.80;;;;;;9180896;19;20090;-74
2023/12/14 00:41:47;;;;;;;19.08;11.23;;;6.10;92.50;;;;;;9181821;19;20019;-73
2023/12/14 00:44:52;;;;;;;16.80;10.05;;;6.90;92.90;;;;;;9181741;19;20045;-74
2023/12/14 00:48:00;;;;;;;17.48;10.40;;;6.70;92.10;;;;;;9179593;19;20019;-74
2023/12/14 00:51:06;;;;;;;19.52;10.75;;;7.40;91.60;;;;;;9179781;19;20022;-74
2023/12/14 00:54:16;;;;;;;18.90;9.93;;;6.70;91.10;;;;;;9181781;19;20026;-73
2023/12/14 00:57:23;;;;;;;14.98;9.40;;;6.70;91.10;;;;;;9179418;19;20015;-76
2023/12/14 01:00:31;;;;;;;16.30;9.10;;;6.70;91.10;;;;;;9179126;19;20010;-76
2023/12/14 01:03:36;;;;;;;14.38;9.40;;;6.70;91.00;;;;;;9181184;19;20025;-74
2023/12/14 01:06:44;;;;;;;13.35;8.23;;;6.70;91.00;;;;;;9180958;19;20101;-75
2023/12/14 01:09:52;;;;;;;13.80;8.82;;;6.60;91.00;;;;;;9177091;19;20014;-75
2023/12/14 01:13:00;;;;;;;13.68;8.57;;;6.60;91.70;;;;;;9180135;19;20014;-73
2023/12/14 01:16:06;;;;;;;11.80;7.93;;;6.70;91.10;;;;;;9180277;19;20024;-73
2023/12/14 01:19:14;;;;;;;16.83;8.85;;;6.60;91.00;;;;;;9181270;19;20014;-74
2023/12/14 01:22:19;;;;;;;12.98;7.60;;;6.60;91.00;;;;;;9180162;19;20066;-75
2023/12/14 01:25:30;;;;;;;16.17;8.05;;;6.60;91.00;;;;;;9180495;19;20471;-75
2023/12/14 01:28:35;;;;;;;15.35;8.70;;;6.90;93.60;;;;;;9171435;19;20025;-75
2023/12/14 01:31:43;;;;;;;13.85;7.82;;;6.70;92.10;;;;;;9175789;19;20021;-74
2023/12/14 01:34:48;;;;;;;12.90;8.20;;;6.60;91.00;;;;;;9179301;19;20006;-74
2023/12/14 01:37:56;;;;;;;13.35;8.32;;;6.60;91.00;;;;;;9179503;19;20021;-75
2023/12/14 01:41:05;;;;;;;12.27;7.82;;;6.50;90.90;;;;;;9178545;19;20018;-74
2023/12/14 01:44:13;;;;;;;12.18;7.93;;;6.60;91.00;;;;;;9179149;19;20018;-74
2023/12/14 01:47:20;;;;;;;16.83;8.93;;;6.50;90.90;;;;;;9178416;19;20029;-75
2023/12/14 01:50:28;;;;;;;14.50;8.80;;;6.50;90.90;;;;;;9178031;19;20468;-74
2023/12/14 01:53:33;;;;;;;14.30;8.82;;;6.50;90.90;;;;;;9177335;19;20030;-74
2023/12/14 01:56:43;;;;;;;16.27;8.45;;;6.50;90.90;;;;;;9178407;19;20480;-74
2023/12/14 01:59:49;;;;;;;12.70;8.10;;;6.50;90.90;;;;;;9178629;19;20022;-74
2023/12/14 02:02:57;;;;;;;11.45;7.50;;;6.50;90.90;;;;;;9177868;19;20022;-74
2023/12/14 02:06:02;;;;;;;11.50;7.47;;;6.60;90.90;;;;;;9178374;19;20015;-74
2023/12/14 02:09:10;;;;;;;13.63;8.02;;;6.60;91.00;;;;;;9174335;19;20014;-74
2023/12/14 02:12:18;;;;;;;14.30;7.65;;;6.60;90.90;;;;;;9175859;19;20014;-74
2023/12/14 02:15:26;;;;;;;14.65;8.68;;;6.60;90.90;;;;;;9178049;19;20018;-74
2023/12/14 02:18:31;;;;;;;11.95;8.10;;;6.60;90.90;;;;;;9177291;19;20873;-74
2023/12/14 02:21:39;;;;;;;13.85;8.20;;;6.60;90.90;;;;;;9176846;19;20373;-74
2023/12/14 02:24:47;;;;;;;13.23;8.48;;;6.60;90.90;;;;;;9172949;19;20345;-74
2023/12/14 02:27:55;;;;;;;13.15;8.43;;;6.50;90.90;;;;;;9170773;19;20016;-74
2023/12/14 02:31:00;;;;;;;12.75;8.93;;;6.60;90.90;;;;;;9175202;19;20010;-74
2023/12/14 02:34:08;;;;;;;14.77;8.35;;;6.60;91.00;;;;;;9176592;19;20571;-75
2023/12/14 02:37:14;;;;;;;13.05;8.68;;;6.60;90.90;;;;;;9174400;19;20011;-74
2023/12/14 02:40:24;;;;;;;16.23;9.15;;;6.60;90.90;;;;;;9175505;19;20025;-74
2023/12/14 02:43:29;;;;;;;13.90;9.05;;;6.60;90.90;;;;;;9174645;19;20025;-74
2023/12/14 02:46:37;;;;;;;16.10;9.02;;;6.60;91.00;;;;;;9176842;19;20617;-74
2023/12/14 02:49:42;;;;;;;15.43;9.25;;;6.60;91.00;;;;;;9171807;19;20022;-74
2023/12/14 02:52:50;;;;;;;12.68;8.30;;;6.60;91.10;;;;;;9174319;19;20015;-74
2023/12/14 02:55:58;;;;;;;15.25;9.20;;;6.60;91.60;;;;;;9174599;19;20024;-74
2023/12/14 02:59:06;;;;;;;14.75;9.35;;;6.70;92.70;;;;;;9175448;19;20010;-74
2023/12/14 03:02:12;;;;;;;15.88;9.30;;;6.80;91.70;;;;;;9174910;19;20793;-74
2023/12/14 03:05:19;;;;;;;17.55;10.40;;;6.50;90.90;;;;;;9173658;19;20018;-73
2023/12/14 03:08:25;;;;;;;14.52;9.38;;;6.60;90.80;;;;;;9174841;19;20015;-73
2023/12/14 03:11:35;;;;;;;14.93;9.80;;;6.60;90.80;;;;;;9174331;19;20010;-73
2023/12/14 03:14:41;;;;;;;14.88;9.25;;;6.60;90.80;;;;;;9175279;19;20480;-73
2023/12/14 03:17:48;;;;;;;14.57;9.15;;;6.60;90.80;;;;;;9175630;19;20392;-73
2023/12/14 03:20:55;;;;;;;15.05;9.10;;;6.60;90.80;;;;;;9173633;19;20480;-73
2023/12/14 03:24:03;;;;;;;14.70;9.13;;;6.60;90.80;;;;;;9175084;19;20019;-73
2023/12/14 03:27:11;;;;;;;14.10;8.55;;;6.60;90.90;;;;;;9171119;19;20048;-73
2023/12/14 03:30:19;;;;;;;14.18;8.75;;;6.60;90.80;;;;;;9175156;19;20018;-73
2023/12/14 03:33:24;;;;;;;12.10;8.50;;;6.80;91.60;;;;;;9175974;19;20018;-72
2023/12/14 03:36:33;;;;;;;13.23;8.23;;;6.60;90.80;;;;;;9172148;19;20018;-72
2023/12/14 03:39:38;;;;;;;13.95;8.70;;;6.60;91.10;;;;;;9175565;19;20015;-71
2023/12/14 03:42:48;;;;;;;16.38;7.55;;;7.20;91.30;;;;;;9174208;19;20014;-72
2023/12/14 03:45:54;;;;;;;11.65;7.55;;;6.60;91.00;;;;;;9173991;19;20461;-72
2023/12/14 03:49:01;;;;;;;12.90;7.40;;;6.60;90.80;;;;;;9173837;19;20014;-72
2023/12/14 03:52:08;;;;;;;11.35;7.30;;;6.60;91.00;;;;;;9174465;19;20460;-74
2023/12/14 03:55:17;;;;;;;12.40;7.50;;;6.60;90.90;;;;;;9173356;19;20014;-72
2023/12/14 03:58:25;;;;;;;13.00;7.65;;;6.60;91.10;;;;;;9174434;19;20367;-73
2023/12/14 04:01:33;;;;;;;10.85;7.47;;;6.70;91.40;;;;;;9173732;19;20015;-74
2023/12/14 04:04:39;;;;;;;12.68;8.02;;;6.60;90.70;;;;;;9173949;19;20587;-73
2023/12/14 04:07:46;;;;;;;13.75;7.65;;;6.60;90.80;;;;;;9173447;19;20015;-72
2023/12/14 04:10:52;;;;;;;13.75;7.72;;;6.60;90.70;;;;;;9172400;19;20018;-71
2023/12/14 04:14:02;;;;;;;12.73;7.75;;;6.60;90.70;;;;;;9174586;19;20018;-73
2023/12/14 04:17:08;;;;;;;13.52;7.78;;;6.60;90.70;;;;;;9169151;19;20029;-75
2023/12/14 04:20:16;;;;;;;15.32;8.77;;;6.60;90.70;;;;;;9173459;19;20026;-75
2023/12/14 04:23:22;;;;;;;13.48;7.95;;;6.60;90.70;;;;;;9173348;19;20102;-75
2023/12/14 04:26:29;;;;;;;17.42;8.73;;;6.60;90.70;;;;;;9168283;19;20393;-75
2023/12/14 04:29:38;;;;;;;12.52;8.57;;;6.60;90.70;;;;;;9172434;19;20449;-75
2023/12/14 04:32:47;;;;;;;15.70;8.35;;;6.60;90.70;;;;;;9177380;19;20026;-76
2023/12/14 04:35:53;;;;;;;14.43;8.20;;;6.60;90.70;;;;;;9181825;19;20010;-73
2023/12/14 04:39:00;;;;;;;14.18;8.55;;;6.60;90.70;;;;;;9180935;19;20038;-73
2023/12/14 04:42:06;;;;;;;12.52;7.35;;;6.60;90.70;;;;;;9181516;19;20672;-73
2023/12/14 04:45:16;;;;;;;13.00;7.70;;;6.60;90.70;;;;;;9181665;19;20597;-74
2023/12/14 04:48:22;;;;;;;12.15;7.38;;;6.60;90.70;;;;;;9181119;19;20018;-75
2023/12/14 04:51:29;;;;;;;14.35;7.43;;;6.60;90.70;;;;;;9178949;19;20360;-74
2023/12/14 04:54:37;;;;;;;13.18;7.50;;;6.60;90.70;;;;;;9181839;19;20018;-73
2023/12/14 04:57:48;;;;;;;10.93;6.85;;;6.60;90.70;;;;;;9180758;19;20551;-75
2023/12/14 05:00:56;;;;;;;13.73;7.30;;;6.60;90.70;;;;;;9180594;19;20010;-72
2023/12/14 05:04:04;;;;;;;14.32;7.53;;;6.60;90.70;;;;;;9180617;19;20018;-74
2023/12/14 05:07:10;;;;;;;12.70;7.72;;;6.60;90.70;;;;;;9179809;19;20543;-74
2023/12/14 05:10:18;;;;;;;11.85;6.97;;;6.60;90.70;;;;;;9179136;19;20036;-75
2023/12/14 05:13:23;;;;;;;12.27;7.10;;;6.60;90.70;;;;;;9178557;19;20038;-74
2023/12/14 05:16:33;;;;;;;14.60;7.55;;;6.60;90.70;;;;;;9180263;19;20491;-75
2023/12/14 05:19:39;;;;;;;15.15;8.45;;;6.60;90.70;;;;;;9179615;19;20011;-75
2023/12/14 05:22:46;;;;;;;15.05;7.88;;;6.60;90.70;;;;;;9179651;19;20022;-75
2023/12/14 05:25:52;;;;;;;12.73;7.35;;;6.60;90.70;;;;;;9178371;19;20029;-75
2023/12/14 05:29:00;;;;;;;14.32;7.20;;;6.60;90.70;;;;;;9175005;19;20384;-75
2023/12/14 05:32:08;;;;;;;13.15;7.50;;;6.60;90.70;;;;;;9176847;19;20007;-73
2023/12/14 05:35:16;;;;;;;12.00;7.35;;;6.60;90.70;;;;;;9178400;19;20021;-74
2023/12/14 05:38:26;;;;;;;14.45;7.85;;;6.60;90.70;;;;;;9179539;19;20358;-74
2023/12/14 05:41:33;;;;;;;13.75;7.85;;;6.60;90.70;;;;;;9178337;19;20022;-75
2023/12/14 05:44:39;;;;;;;14.93;7.35;;;6.60;90.70;;;;;;9178598;19;20587;-73
2023/12/14 05:47:51;;;;;;;12.68;7.22;;;6.60;90.70;;;;;;9176429;19;20018;-74
2023/12/14 05:50:56;;;;;;;12.73;7.18;;;6.60;90.60;;;;;;9177316;19;20512;-74
2023/12/14 05:54:04;;;;;;;12.50;7.22;;;6.60;90.70;;;;;;9179484;19;20356;-76
2023/12/14 05:57:12;;;;;;;14.00;6.97;;;6.60;90.70;;;;;;9178484;19;20064;-74
2023/12/14 06:00:22;;;;;;;14.02;7.35;;;6.60;90.70;;;;;;9178114;19;20011;-75
2023/12/14 06:03:31;;;;;;;12.52;7.60;;;6.60;90.70;;;;;;9177058;19;20029;-74
2023/12/14 06:06:41;;;;;;;12.23;7.35;;;6.60;90.70;;;;;;9177367;19;20018;-73
2023/12/14 06:09:47;;;;;;;13.15;7.65;;;6.60;90.70;;;;;;9175538;19;20052;-73
2023/12/14 06:12:54;;;;;;;13.07;7.57;;;6.60;90.70;;;;;;9174750;19;20011;-75
2023/12/14 06:16:00;;;;;;;13.73;8.38;;;6.60;90.70;;;;;;9174823;19;20015;-74
2023/12/14 06:19:10;;;;;;;14.73;8.65;;;6.70;90.70;;;;;;9175041;19;20010;-74
2023/12/14 06:22:16;;;;;;;12.02;7.35;;;6.60;90.70;;;;;;9174682;19;20022;-73
2023/12/14 06:25:24;;;;;;;10.73;7.10;;;6.60;91.00;;;;;;9173477;19;20014;-74
2023/12/14 06:28:30;;;;;;;12.05;6.68;;;6.70;92.30;;;;;;9171252;19;20011;-74
2023/12/14 06:31:38;;;;;;;11.93;6.45;;;8.10;93.80;;;;;;9171590;19;20021;-73
2023/12/14 06:34:46;;;;;;;11.57;6.95;;;6.70;95.20;;;;;;9176827;19;20018;-73
2023/12/14 06:37:53;;;;;;;11.40;6.47;;;6.70;92.90;;;;;;9177123;19;20022;-74
2023/12/14 06:40:59;;;;;;;10.00;7.15;;;6.70;93.80;;;;;;9175544;19;20018;-74
2023/12/14 06:44:09;;;;;;;11.38;7.18;;;6.70;95.80;;;;;;9176444;19;20017;-74
2023/12/14 06:47:15;;;;;;;12.43;7.50;;;6.60;94.00;;;;;;9175624;19;20018;-74
2023/12/14 06:50:25;;;;;;;13.57;8.02;;;6.70;94.00;;;;;;9174067;19;20824;-74
2023/12/14 06:53:31;;;;;;;14.77;8.38;;;6.60;95.60;;;;;;9174462;19;20007;-74
2023/12/14 06:56:39;;;;;;;12.98;7.78;;;6.60;92.70;;;;;;9173472;19;20762;-74
2023/12/14 06:59:45;;;;;;;14.57;7.30;;;6.50;92.40;;;;;;9176782;19;20014;-73
2023/12/14 07:02:52;;;;;;;12.02;8.05;;;6.50;92.50;;;;;;9175850;19;20018;-74
2023/12/14 07:06:01;;;;;;;12.40;8.05;;;6.50;93.00;;;;;;9171143;19;20499;-73
2023/12/14 07:09:09;;;;;;;12.98;8.73;;;6.50;93.30;;;;;;9174299;19;20015;-74
2023/12/14 07:12:15;;;;;;;11.98;7.97;;;6.40;94.30;;;;;;9174595;19;20025;-76
2023/12/14 07:15:22;;;;;;;15.43;8.65;;;6.50;95.00;;;;;;9175876;19;20477;-74
2023/12/14 07:18:28;;;;;;;11.38;7.32;;;6.40;95.40;;;;;;9173373;19;20022;-75
2023/12/14 07:21:38;;;;;;;12.07;8.02;;;6.30;91.80;;;;;;9174478;19;20021;-73
2023/12/14 07:24:44;;;;;;;11.00;7.43;;;6.40;92.90;;;;;;9175664;19;20044;-73
2023/12/14 07:28:02;;;;;;;12.57;7.43;;;6.60;92.80;;;;;;9169962;19;20484;-74
2023/12/14 07:31:08;;;;;;;16.73;8.02;;;6.40;93.10;;;;;;9172194;19;20022;-74
2023/12/14 07:34:16;;;;;;;12.23;8.27;;;6.50;93.80;;;;;;9172910;19;20811;-74
2023/12/14 07:37:24;;;;;;;12.93;8.73;;;6.40;93.60;;;;;;9172251;19;20056;-75
2023/12/14 07:40:32;;;;;;;13.85;8.60;;;6.50;94.00;;;;;;9173962;19;20023;-74
2023/12/14 07:43:38;;;;;;;15.95;8.80;;;6.30;91.70;;;;;;9174772;19;20021;-74
2023/12/14 07:46:45;;;;;;;14.02;8.75;;;6.40;91.80;;;;;;9175198;19;20018;-72
2023/12/14 07:49:51;;;;;;;11.07;7.93;;;6.40;91.90;;;;;;9174617;19;20539;-72
2023/12/14 07:53:02;;;;;;;11.25;7.13;;;6.40;93.00;;;;;;9172057;19;20836;-73
2023/12/14 07:56:09;;;;;;;14.20;8.52;;;6.30;91.80;;;;;;9172231;19;20018;-72
2023/12/14 07:59:17;;;;;;;12.02;7.50;;;6.30;92.10;;;;;;9174223;19;20761;-72
2023/12/14 08:02:23;;;;;;;11.23;7.75;;;6.30;91.00;;;;;;9170837;19;20011;-72
2023/12/14 08:05:31;;;;;;;13.18;8.35;;;6.40;93.00;;;;;;9172266;19;20014;-73
2023/12/14 08:08:39;;;;;;;16.80;8.35;;;6.30;90.90;;;;;;9181927;19;20511;-74
2023/12/14 08:11:47;;;;;;;13.90;8.02;;;6.40;91.90;;;;;;9182106;19;20025;-73
2023/12/14 08:14:52;;;;;;;13.00;7.97;;;6.70;92.20;;;;;;9183562;19;20029;-73
2023/12/14 08:18:00;;;;;;;14.90;8.52;;;6.30;90.60;;;;;;9182537;19;20015;-73
2023/12/14 08:21:06;;;;;;;20.42;9.52;;;6.30;90.50;;;;;;9182604;19;20011;-73
2023/12/14 08:24:20;;;;;;;38.13;9.90;;;6.30;90.50;;;;;;9182215;19;20034;-73
2023/12/14 08:27:25;;;;;;;17.83;9.85;;;6.40;90.50;;;;;;9177000;19;20571;-73
2023/12/14 08:30:33;;;;;;;14.65;8.57;;;6.30;90.80;;;;;;9179537;19;20006;-73
2023/12/14 08:33:39;;;;;;;11.85;7.97;;;6.30;91.00;;;;;;9179172;19;20014;-73
2023/12/14 08:36:46;;;;;;;16.25;7.95;;;6.40;91.70;;;;;;9181978;19;20022;-72
2023/12/14 08:39:55;;;;;;;17.80;8.40;;;6.50;92.10;;;;;;9182334;19;20051;-71
2023/12/14 08:43:03;;;;;;;11.30;7.82;;;6.50;93.60;;;;;;9181664;19;20021;-71
2023/12/14 08:46:09;;;;;;;15.88;8.90;;;6.50;91.90;;;;;;9181965;19;20044;-73
2023/12/14 08:49:17;;;;;;;13.88;7.22;;;6.50;93.10;;;;;;9183034;19;20014;-73
2023/12/14 08:52:22;;;;;;;16.23;8.52;;;6.50;92.40;;;;;;9179785;19;20011;-73
2023/12/14 08:55:32;;;;;;;18.15;10.43;;;6.60;92.50;;;;;;9181799;19;20014;-72
2023/12/14 08:58:38;;;;;;;25.10;14.75;;;6.60;92.30;;;;;;9179029;19;20026;-73
2023/12/14 09:01:46;;;;;;;33.05;17.55;;;7.50;93.00;;;;;;9180409;19;20014;-73
2023/12/14 09:04:51;;;;;;;21.17;13.27;;;6.40;90.50;;;;;;9180730;19;20087;-72
2023/12/14 09:07:59;;;;;;;21.13;10.05;;;6.40;90.50;;;;;;9180199;19;20030;-72
2023/12/14 09:11:07;;;;;;;10.13;6.25;;;6.40;90.80;;;;;;9178943;19;20018;-72
2023/12/14 09:14:16;;;;;;;13.95;6.55;;;6.60;93.50;;;;;;9177917;19;20033;-71
2023/12/14 09:17:22;;;;;;;10.98;6.40;;;6.60;95.30;;;;;;9179133;19;20018;-72
2023/12/14 09:20:31;;;;;;;15.30;7.20;;;6.60;91.70;;;;;;9181046;19;20029;-72
2023/12/14 09:23:36;;;;;;;9.93;6.68;;;6.60;94.00;;;;;;9179510;19;20017;-72
2023/12/14 09:26:46;;;;;;;19.08;7.00;;;6.50;91.40;;;;;;9175719;19;20380;-72
2023/12/14 09:29:52;;;;;;;11.23;7.45;;;6.40;90.80;;;;;;9178893;19;20015;-72
2023/12/14 09:32:59;;;;;;;12.75;7.15;;;6.60;92.40;;;;;;9177368;19;20025;-71
2023/12/14 09:36:06;;;;;;;12.80;7.03;;;7.10;96.60;;;;;;9180097;19;20463;-73
2023/12/14 09:39:15;;;;;;;15.68;6.60;;;6.50;91.90;;;;;;9179791;19;20018;-73
2023/12/14 09:42:24;;;;;;;11.52;5.97;;;6.50;92.20;;;;;;9179825;19;20096;-72
2023/12/14 09:45:33;;;;;;;11.48;5.68;;;7.00;91.00;;;;;;9179500;19;20022;-70
2023/12/14 09:48:39;;;;;;;9.57;5.93;;;6.40;90.30;;;;;;9179477;19;20500;-73
2023/12/14 09:51:46;;;;;;;10.60;6.40;;;6.40;90.30;;;;;;9178911;19;20038;-70
2023/12/14 09:54:52;;;;;;;11.27;6.13;;;6.40;90.30;;;;;;9175246;19;20015;-72
2023/12/14 09:58:06;;;;;;;9.77;5.68;;;6.40;90.30;;;;;;9178510;19;20011;-72
2023/12/14 10:01:25;;;;;;;10.80;5.97;;;6.40;90.20;;;;;;9178754;19;20014;-72
2023/12/14 10:04:35;;;;;;;12.93;6.65;;;6.40;90.20;;;;;;9175887;19;20499;-73
2023/12/14 10:07:45;;;;;;;10.68;6.32;;;6.50;90.30;;;;;;9179239;19;20026;-72
2023/12/14 10:10:55;;;;;;;11.60;6.15;;;6.50;90.30;;;;;;9177358;19;20409;-72
2023/12/14 10:14:04;;;;;;;14.98;6.80;;;6.50;90.40;;;;;;9175112;19;20372;-72
2023/12/14 10:17:24;;;;;;;16.60;6.47;;;6.60;90.80;;;;;;9177882;19;20021;-72
2023/12/14 10:20:30;;;;;;;14.75;6.45;;;6.60;91.90;;;;;;9177784;19;20010;-73
2023/12/14 10:23:38;;;;;;;13.05;6.38;;;6.70;91.50;;;;;;9173262;19;20118;-73
2023/12/14 10:26:48;;;;;;;12.52;6.63;;;6.60;92.40;;;;;;9166891;19;20018;-72
2023/12/14 10:29:58;;;;;;;12.35;6.53;;;6.70;93.50;;;;;;9172045;19;20022;-73
2023/12/14 10:33:04;;;;;;;10.02;6.15;;;6.60;92.80;;;;;;9175002;19;20383;-74
2023/12/14 10:36:12;;;;;;;11.45;7.07;;;6.70;93.20;;;;;;9172597;19;20026;-72
2023/12/14 10:39:19;;;;;;;11.15;6.78;;;6.70;95.30;;;;;;9174807;19;20011;-72
2023/12/14 10:42:30;;;;;;;11.65;6.80;;;6.70;93.80;;;;;;9177097;19;20052;-73
2023/12/14 10:45:39;;;;;;;14.05;7.00;;;6.70;93.90;;;;;;9177390;19;20011;-72
2023/12/14 10:48:49;;;;;;;18.88;8.63;;;6.70;94.20;;;;;;9176528;19;20011;-72
2023/12/14 10:51:57;;;;;;;19.33;9.30;;;6.70;94.60;;;;;;9172838;19;20014;-72
2023/12/14 10:55:10;;;;;;;14.00;8.57;;;6.80;94.00;;;;;;9175654;19;20022;-72
2023/12/14 10:58:16;;;;;;;15.88;8.80;;;6.80;93.70;;;;;;9174329;19;20610;-72
2023/12/14 11:01:27;;;;;;;19.23;8.30;;;6.90;94.00;;;;;;9176781;19;20030;-72
2023/12/14 11:04:32;;;;;;;15.18;8.88;;;6.80;94.30;;;;;;9176038;19;20452;-72
2023/12/14 11:07:47;;;;;;;15.77;9.73;;;6.80;92.50;;;;;;9173632;19;20526;-72
2023/12/14 11:10:57;;;;;;;13.95;9.10;;;6.70;90.60;;;;;;9175317;19;20022;-71
2023/12/14 11:14:05;;;;;;;21.52;9.55;;;6.80;92.20;;;;;;9174623;19;20019;-71
2023/12/14 11:17:13;;;;;;;14.82;9.80;;;6.70;90.80;;;;;;9176759;19;20094;-70
2023/12/14 11:20:27;;;;;;;16.60;9.02;;;6.70;90.70;;;;;;9174860;19;20317;-70
2023/12/14 11:23:36;;;;;;;17.85;10.15;;;6.80;90.80;;;;;;9175373;19;20025;-71
2023/12/14 11:26:43;;;;;;;14.32;9.05;;;6.80;91.00;;;;;;9170347;19;20014;-72
2023/12/14 11:29:51;;;;;;;13.63;9.35;;;6.80;91.30;;;;;;9173193;19;21077;-70
2023/12/14 11:33:01;;;;;;;15.52;9.77;;;6.80;91.80;;;;;;9174294;19;20018;-71
2023/12/14 11:36:08;;;;;;;15.48;9.23;;;7.30;92.10;;;;;;9174737;19;20015;-70
2023/12/14 11:39:16;;;;;;;16.42;9.80;;;6.90;91.70;;;;;;9172659;19;20018;-70
2023/12/14 11:42:21;;;;;;;24.10;12.52;;;6.90;91.00;;;;;;9181086;19;20018;-71
2023/12/14 11:45:29;;;;;;;19.92;10.48;;;6.90;91.40;;;;;;9183533;19;20029;-72
2023/12/14 11:48:37;;;;;;;19.05;9.98;;;7.00;91.90;;;;;;9183047;19;20014;-70
2023/12/14 11:51:48;;;;;;;16.67;7.97;;;7.00;92.10;;;;;;9183800;19;20041;-72
2023/12/14 11:54:56;;;;;;;16.83;8.75;;;6.80;90.30;;;;;;9179275;19;20380;-72
2023/12/14 11:58:03;;;;;;;15.75;8.68;;;6.80;89.90;;;;;;9183686;19;20010;-71
2023/12/14 12:01:17;;;;;;;14.65;8.10;;;6.80;89.90;;;;;;9182587;19;20740;-70
2023/12/14 12:04:28;;;;;;;20.45;8.88;;;6.80;90.00;;;;;;9182666;19;20627;-69
2023/12/14 12:07:33;;;;;;;20.08;8.50;;;6.80;90.90;;;;;;9183443;19;20044;-71
2023/12/14 12:10:44;;;;;;;21.23;10.63;;;6.80;90.30;;;;;;9183124;19;20025;-74
2023/12/14 12:13:54;;;;;;;22.00;11.63;;;6.80;90.50;;;;;;9182728;19;20047;-73
2023/12/14 12:17:01;;;;;;;27.95;10.90;;;6.80;90.30;;;;;;9184561;19;20776;-72
2023/12/14 12:20:12;;;;;;;25.38;11.30;;;6.90;90.90;;;;;;9184287;19;20023;-72
2023/12/14 12:23:19;;;;;;;19.08;9.60;;;6.80;90.50;;;;;;9185350;19;20018;-73
2023/12/14 12:26:25;;;;;;;15.07;8.02;;;6.90;92.20;;;;;;9180948;19;20026;-73
2023/12/14 12:29:33;;;;;;;16.17;8.82;;;7.40;92.40;;;;;;9181906;19;20019;-75
2023/12/14 12:32:39;;;;;;;17.30;9.07;;;6.90;91.40;;;;;;9182009;19;20779;-76
2023/12/14 12:35:49;;;;;;;16.48;8.60;;;6.70;89.80;;;;;;9179594;19;20624;-74
2023/12/14 12:38:54;;;;;;;13.43;7.95;;;6.70;89.90;;;;;;9182924;19;20526;-76
2023/12/14 12:42:02;;;;;;;16.70;8.27;;;7.10;92.20;;;;;;9181131;19;20475;-74
2023/12/14 12:45:10;;;;;;;13.75;8.15;;;7.10;92.10;;;;;;9179928;19;20020;-75
2023/12/14 12:48:18;;;;;;;17.55;8.32;;;6.90;91.50;;;;;;9179460;19;20357;-75
2023/12/14 12:51:26;;;;;;;13.77;8.00;;;6.90;91.60;;;;;;9179275;19;20022;-74
2023/12/14 12:54:34;;;;;;;14.20;8.32;;;6.90;91.70;;;;;;9178802;19;20029;-74
2023/12/14 12:57:41;;;;;;;17.38;8.45;;;7.10;91.30;;;;;;9180672;19;20014;-75
2023/12/14 13:00:49;;;;;;;24.00;10.02;;;6.80;90.70;;;;;;9181252;19;20026;-76
2023/12/14 13:03:59;;;;;;;14.98;8.27;;;6.90;90.80;;;;;;9180512;19;20018;-75
2023/12/14 13:07:09;;;;;;;14.98;8.00;;;6.80;90.90;;;;;;9181315;19;20022;-75
2023/12/14 13:10:14;;;;;;;16.58;7.45;;;6.80;91.00;;;;;;9180351;19;20044;-75
2023/12/14 13:13:37;;;;;;;18.83;8.70;;;6.90;91.20;;;;;;9180654;19;20022;-74
2023/12/14 13:16:43;;;;;;;20.75;9.18;;;6.90;90.30;;;;;;9177791;19;20026;-75
2023/12/14 13:19:51;;;;;;;13.68;8.10;;;6.80;90.80;;;;;;9180505;19;20018;-74
2023/12/14 13:22:59;;;;;;;21.60;9.23;;;6.80;91.60;;;;;;9180804;19;20487;-76
2023/12/14 13:26:07;;;;;;;17.95;8.85;;;6.80;90.20;;;;;;9178459;19;20018;-74
2023/12/14 13:29:13;;;;;;;18.63;9.27;;;6.80;90.60;;;;;;9175264;19;20019;-74
2023/12/14 13:32:21;;;;;;;19.83;9.60;;;6.80;90.50;;;;;;9178164;19;20021;-74
2023/12/14 13:35:27;;;;;;;17.08;8.32;;;6.90;91.40;;;;;;9178116;19;20040;-72
2023/12/14 13:38:38;;;;;;;18.48;8.70;;;6.80;90.40;;;;;;9180424;19;20018;-72
2023/12/14 13:41:44;;;;;;;19.25;10.00;;;6.70;90.20;;;;;;9182339;19;20018;-72
2023/12/14 13:44:57;;;;;;;22.87;10.63;;;6.90;90.40;;;;;;9181295;19;20013;-73
2023/12/14 13:48:02;;;;;;;20.70;9.45;;;6.80;90.70;;;;;;9180369;19;20018;-72
2023/12/14 13:51:10;;;;;;;19.67;10.27;;;6.80;91.40;;;;;;9181606;19;20409;-74
2023/12/14 13:54:18;;;;;;;21.98;9.95;;;6.80;90.10;;;;;;9181161;19;20014;-72
2023/12/14 13:57:27;;;;;;;21.45;10.32;;;6.80;90.20;;;;;;9178959;19;20023;-73
2023/12/14 14:00:34;;;;;;;19.90;8.75;;;6.80;90.00;;;;;;9180675;19;20026;-73
2023/12/14 14:03:46;;;;;;;16.67;9.35;;;6.80;90.10;;;;;;9180486;19;20015;-73
2023/12/14 14:06:52;;;;;;;19.38;8.90;;;6.90;90.20;;;;;;9181284;19;20014;-73
2023/12/14 14:10:03;;;;;;;20.42;8.70;;;6.80;90.20;;;;;;9181189;19;20014;-73
2023/12/14 14:13:08;;;;;;;24.77;10.25;;;6.80;90.20;;;;;;9180434;19;20476;-73
2023/12/14 14:16:16;;;;;;;14.60;8.65;;;6.90;90.30;;;;;;9179025;19;20022;-74
2023/12/14 14:19:22;;;;;;;14.70;9.00;;;6.90;90.50;;;;;;9180094;19;20011;-73
2023/12/14 14:22:30;;;;;;;15.85;8.90;;;6.90;90.50;;;;;;9180298;19;20026;-74
2023/12/14 14:25:38;;;;;;;18.05;9.40;;;6.90;90.60;;;;;;9177716;19;20451;-73
2023/12/14 14:28:46;;;;;;;20.80;9.57;;;6.90;90.90;;;;;;9177987;19;20022;-71
2023/12/14 14:31:52;;;;;;;22.98;10.07;;;6.90;90.80;;;;;;9176456;19;20007;-73
2023/12/14 14:35:00;;;;;;;18.08;8.95;;;6.90;91.00;;;;;;9178021;19;20019;-73
2023/12/14 14:38:06;;;;;;;19.58;9.43;;;7.00;91.40;;;;;;9178391;19;20019;-72
2023/12/14 14:41:16;;;;;;;23.50;10.48;;;6.90;90.70;;;;;;9177142;19;20010;-72
2023/12/14 14:44:23;;;;;;;21.08;9.70;;;7.00;90.70;;;;;;9177617;19;20441;-73
2023/12/14 14:47:31;;;;;;;20.45;10.13;;;6.90;90.50;;;;;;9175369;19;20377;-71
2023/12/14 14:50:37;;;;;;;17.65;9.48;;;7.00;91.00;;;;;;9175073;19;20018;-70
2023/12/14 14:53:44;;;;;;;15.93;8.73;;;7.10;90.70;;;;;;9176821;19;20370;-71
2023/12/14 14:56:52;;;;;;;19.52;10.20;;;6.90;90.40;;;;;;9173412;19;20857;-70
2023/12/14 15:00:00;;;;;;;17.75;8.65;;;6.90;90.40;;;;;;9174624;19;20503;-71
2023/12/14 15:03:09;;;;;;;20.35;9.15;;;6.90;90.90;;;;;;9176835;19;20014;-71
2023/12/14 15:06:17;;;;;;;18.38;9.13;;;7.00;91.80;;;;;;9175049;19;20014;-71
2023/12/14 15:09:22;;;;;;;20.00;9.10;;;7.00;91.00;;;;;;9176260;19;20048;-71
2023/12/14 15:12:32;;;;;;;18.55;9.30;;;7.00;92.30;;;;;;9176478;19;20029;-71
2023/12/14 15:15:39;;;;;;;19.30;8.90;;;6.90;92.50;;;;;;9174763;19;20014;-70
2023/12/14 15:18:47;;;;;;;17.60;8.65;;;7.00;91.70;;;;;;9176614;19;20018;-71
2023/12/14 15:21:53;;;;;;;17.17;9.48;;;6.80;90.10;;;;;;9175810;19;20026;-71
2023/12/14 15:25:00;;;;;;;20.60;8.98;;;6.80;90.10;;;;;;9174359;19;20499;-71
2023/12/14 15:28:09;;;;;;;18.88;9.10;;;6.80;90.10;;;;;;9171895;19;20007;-70
2023/12/14 15:31:16;;;;;;;17.75;8.82;;;6.80;90.30;;;;;;9171332;19;20019;-71
2023/12/14 15:34:22;;;;;;;18.90;8.75;;;6.80;90.50;;;;;;9174416;19;20022;-70
2023/12/14 15:37:29;;;;;;;19.40;8.27;;;6.90;90.40;;;;;;9172309;19;20010;-72
2023/12/14 15:40:35;;;;;;;21.80;9.38;;;6.80;90.70;;;;;;9172996;19;20490;-72
2023/12/14 15:43:46;;;;;;;24.02;9.15;;;6.80;90.70;;;;;;9173896;19;20022;-70
2023/12/14 15:46:51;;;;;;;19.48;9.20;;;6.80;91.10;;;;;;9173460;19;20011;-70
2023/12/14 15:49:59;;;;;;;17.50;9.05;;;6.90;91.60;;;;;;9171662;19;20026;-71
2023/12/14 15:53:05;;;;;;;17.17;9.27;;;6.90;92.30;;;;;;9173354;19;20029;-71
2023/12/14 15:56:12;;;;;;;22.40;9.82;;;6.70;90.90;;;;;;9170123;19;20019;-71
2023/12/14 15:59:20;;;;;;;15.57;9.00;;;6.70;90.90;;;;;;9173805;19;20014;-71
2023/12/14 16:02:28;;;;;;;15.85;8.05;;;6.60;91.00;;;;;;9173404;19;20025;-71
2023/12/14 16:05:34;;;;;;;16.55;9.13;;;6.70;91.30;;;;;;9147692;19;20026;-72
2023/12/14 16:08:42;;;;;;;21.95;9.55;;;6.60;91.10;;;;;;9157573;19;20021;-71
2023/12/14 16:11:47;;;;;;;21.40;9.95;;;6.60;91.30;;;;;;9173297;19;20021;-69
2023/12/14 16:14:58;;;;;;;20.05;9.15;;;6.50;91.40;;;;;;9174805;19;20025;-72